sensor_id;sensor_type;location;lat;lon;timestamp;P1;durP1;ratioP1;P2;durP2;ratioP2
16115;SDS011;8162;47.104;15.432;2023-06-22T00:01:07;21.07;;;12.10;;
16115;SDS011;8162;47.104;15.432;2023-06-22T00:04:08;15.07;;;10.73;;
16115;SDS011;8162;47.104;15.432;2023-06-22T00:07:09;18.10;;;11.60;;
16115;SDS011;8162;47.104;15.432;2023-06-22T00:10:10;17.27;;;11.50;;
16115;SDS011;8162;47.104;15.432;2023-06-22T00:13:11;15.23;;;10.87;;
16115;SDS011;8162;47.104;15.432;2023-06-22T00:16:13;15.37;;;11.30;;
16115;SDS011;8162;47.104;15.432;2023-06-22T00:19:17;15.80;;;11.87;;
16115;SDS011;8162;47.104;15.432;2023-06-22T00:22:19;16.07;;;11.23;;
16115;SDS011;8162;47.104;15.432;2023-06-22T00:25:28;14.50;;;11.23;;
16115;SDS011;8162;47.104;15.432;2023-06-22T00:28:29;13.27;;;11.50;;
16115;SDS011;8162;47.104;15.432;2023-06-22T00:31:30;13.13;;;11.37;;
16115;SDS011;8162;47.104;15.432;2023-06-22T00:34:31;16.13;;;11.67;;
16115;SDS011;8162;47.104;15.432;2023-06-22T00:37:32;13.83;;;11.60;;
16115;SDS011;8162;47.104;15.432;2023-06-22T00:40:35;14.93;;;11.80;;
16115;SDS011;8162;47.104;15.432;2023-06-22T00:43:36;17.20;;;12.37;;
16115;SDS011;8162;47.104;15.432;2023-06-22T00:46:37;15.23;;;12.13;;
16115;SDS011;8162;47.104;15.432;2023-06-22T00:49:38;12.13;;;10.70;;
16115;SDS011;8162;47.104;15.432;2023-06-22T00:52:40;16.23;;;12.27;;
16115;SDS011;8162;47.104;15.432;2023-06-22T00:55:44;12.87;;;10.63;;
16115;SDS011;8162;47.104;15.432;2023-06-22T00:58:51;15.37;;;12.03;;
16115;SDS011;8162;47.104;15.432;2023-06-22T01:01:53;15.03;;;11.50;;
16115;SDS011;8162;47.104;15.432;2023-06-22T01:04:54;15.10;;;12.17;;
16115;SDS011;8162;47.104;15.432;2023-06-22T01:11:10;16.07;;;12.70;;
16115;SDS011;8162;47.104;15.432;2023-06-22T01:14:27;16.70;;;11.77;;
16115;SDS011;8162;47.104;15.432;2023-06-22T01:17:29;17.73;;;13.77;;
16115;SDS011;8162;47.104;15.432;2023-06-22T01:20:30;18.17;;;11.90;;
16115;SDS011;8162;47.104;15.432;2023-06-22T01:26:57;21.07;;;11.77;;
16115;SDS011;8162;47.104;15.432;2023-06-22T01:30:01;17.17;;;10.97;;
16115;SDS011;8162;47.104;15.432;2023-06-22T01:33:03;19.63;;;11.93;;
16115;SDS011;8162;47.104;15.432;2023-06-22T01:36:05;15.97;;;11.87;;
16115;SDS011;8162;47.104;15.432;2023-06-22T01:39:07;16.30;;;11.63;;
16115;SDS011;8162;47.104;15.432;2023-06-22T01:42:08;15.47;;;10.77;;
16115;SDS011;8162;47.104;15.432;2023-06-22T01:45:11;17.03;;;11.27;;
16115;SDS011;8162;47.104;15.432;2023-06-22T01:48:12;16.83;;;11.17;;
16115;SDS011;8162;47.104;15.432;2023-06-22T01:51:13;17.63;;;11.30;;
16115;SDS011;8162;47.104;15.432;2023-06-22T01:54:14;18.07;;;11.20;;
16115;SDS011;8162;47.104;15.432;2023-06-22T01:57:16;16.50;;;10.93;;
16115;SDS011;8162;47.104;15.432;2023-06-22T02:00:20;16.00;;;10.90;;
16115;SDS011;8162;47.104;15.432;2023-06-22T02:03:25;14.50;;;10.73;;
16115;SDS011;8162;47.104;15.432;2023-06-22T02:06:27;18.37;;;11.83;;
16115;SDS011;8162;47.104;15.432;2023-06-22T02:09:35;15.10;;;11.93;;
16115;SDS011;8162;47.104;15.432;2023-06-22T02:12:37;19.27;;;12.27;;
16115;SDS011;8162;47.104;15.432;2023-06-22T02:15:38;14.63;;;11.53;;
16115;SDS011;8162;47.104;15.432;2023-06-22T02:18:45;17.47;;;10.90;;
16115;SDS011;8162;47.104;15.432;2023-06-22T02:21:46;18.40;;;11.57;;
16115;SDS011;8162;47.104;15.432;2023-06-22T02:24:47;17.67;;;11.40;;
16115;SDS011;8162;47.104;15.432;2023-06-22T02:27:48;15.10;;;10.73;;
16115;SDS011;8162;47.104;15.432;2023-06-22T02:30:49;14.40;;;11.30;;
16115;SDS011;8162;47.104;15.432;2023-06-22T02:33:50;17.50;;;10.73;;
16115;SDS011;8162;47.104;15.432;2023-06-22T02:36:52;19.00;;;11.30;;
16115;SDS011;8162;47.104;15.432;2023-06-22T02:39:53;14.97;;;11.57;;
16115;SDS011;8162;47.104;15.432;2023-06-22T02:42:54;17.63;;;11.33;;
16115;SDS011;8162;47.104;15.432;2023-06-22T02:45:55;15.33;;;12.60;;
16115;SDS011;8162;47.104;15.432;2023-06-22T02:48:56;17.77;;;12.63;;
16115;SDS011;8162;47.104;15.432;2023-06-22T02:51:57;16.30;;;12.87;;
16115;SDS011;8162;47.104;15.432;2023-06-22T02:54:58;16.87;;;12.27;;
16115;SDS011;8162;47.104;15.432;2023-06-22T02:57:59;16.30;;;12.53;;
16115;SDS011;8162;47.104;15.432;2023-06-22T03:01:05;13.83;;;11.83;;
16115;SDS011;8162;47.104;15.432;2023-06-22T03:04:06;15.13;;;12.00;;
16115;SDS011;8162;47.104;15.432;2023-06-22T03:07:07;17.37;;;13.23;;
16115;SDS011;8162;47.104;15.432;2023-06-22T03:10:09;16.77;;;12.07;;
16115;SDS011;8162;47.104;15.432;2023-06-22T03:13:10;18.07;;;12.80;;
16115;SDS011;8162;47.104;15.432;2023-06-22T03:16:11;18.13;;;13.03;;
16115;SDS011;8162;47.104;15.432;2023-06-22T03:19:12;20.33;;;13.17;;
16115;SDS011;8162;47.104;15.432;2023-06-22T03:22:14;18.43;;;12.63;;
16115;SDS011;8162;47.104;15.432;2023-06-22T03:25:15;15.27;;;12.90;;
16115;SDS011;8162;47.104;15.432;2023-06-22T03:28:16;14.37;;;12.77;;
16115;SDS011;8162;47.104;15.432;2023-06-22T03:31:17;16.90;;;12.80;;
16115;SDS011;8162;47.104;15.432;2023-06-22T03:34:21;19.37;;;13.93;;
16115;SDS011;8162;47.104;15.432;2023-06-22T03:37:22;16.70;;;12.10;;
16115;SDS011;8162;47.104;15.432;2023-06-22T03:40:23;17.97;;;13.07;;
16115;SDS011;8162;47.104;15.432;2023-06-22T03:43:24;17.60;;;13.37;;
16115;SDS011;8162;47.104;15.432;2023-06-22T03:46:25;18.70;;;13.07;;
16115;SDS011;8162;47.104;15.432;2023-06-22T03:49:26;16.90;;;13.57;;
16115;SDS011;8162;47.104;15.432;2023-06-22T03:52:27;18.10;;;14.20;;
16115;SDS011;8162;47.104;15.432;2023-06-22T03:55:28;15.90;;;14.30;;
16115;SDS011;8162;47.104;15.432;2023-06-22T03:58:30;21.70;;;14.93;;
16115;SDS011;8162;47.104;15.432;2023-06-22T04:01:32;19.20;;;14.23;;
16115;SDS011;8162;47.104;15.432;2023-06-22T04:04:33;18.53;;;14.67;;
16115;SDS011;8162;47.104;15.432;2023-06-22T04:07:35;25.63;;;14.73;;
16115;SDS011;8162;47.104;15.432;2023-06-22T04:10:39;20.67;;;15.23;;
16115;SDS011;8162;47.104;15.432;2023-06-22T04:13:40;21.70;;;14.10;;
16115;SDS011;8162;47.104;15.432;2023-06-22T04:16:41;19.20;;;15.00;;
16115;SDS011;8162;47.104;15.432;2023-06-22T04:19:42;18.60;;;14.57;;
16115;SDS011;8162;47.104;15.432;2023-06-22T04:22:43;17.57;;;14.40;;
16115;SDS011;8162;47.104;15.432;2023-06-22T04:25:46;19.37;;;14.20;;
16115;SDS011;8162;47.104;15.432;2023-06-22T04:28:47;16.87;;;14.03;;
16115;SDS011;8162;47.104;15.432;2023-06-22T04:31:56;16.97;;;15.20;;
16115;SDS011;8162;47.104;15.432;2023-06-22T04:34:58;22.63;;;15.77;;
16115;SDS011;8162;47.104;15.432;2023-06-22T04:38:04;21.67;;;15.57;;
16115;SDS011;8162;47.104;15.432;2023-06-22T04:41:05;18.70;;;16.20;;
16115;SDS011;8162;47.104;15.432;2023-06-22T04:44:06;21.50;;;15.93;;
16115;SDS011;8162;47.104;15.432;2023-06-22T04:47:07;18.33;;;16.37;;
16115;SDS011;8162;47.104;15.432;2023-06-22T04:50:08;19.17;;;15.77;;
16115;SDS011;8162;47.104;15.432;2023-06-22T04:53:10;19.83;;;15.57;;
16115;SDS011;8162;47.104;15.432;2023-06-22T04:56:12;18.07;;;15.70;;
16115;SDS011;8162;47.104;15.432;2023-06-22T04:59:15;22.83;;;15.80;;
16115;SDS011;8162;47.104;15.432;2023-06-22T05:02:18;23.30;;;16.20;;
16115;SDS011;8162;47.104;15.432;2023-06-22T05:05:20;26.97;;;16.93;;
16115;SDS011;8162;47.104;15.432;2023-06-22T05:08:21;20.23;;;16.30;;
16115;SDS011;8162;47.104;15.432;2023-06-22T05:11:27;19.40;;;15.47;;
16115;SDS011;8162;47.104;15.432;2023-06-22T05:14:29;25.40;;;16.93;;
16115;SDS011;8162;47.104;15.432;2023-06-22T05:17:30;25.80;;;17.57;;
16115;SDS011;8162;47.104;15.432;2023-06-22T05:20:31;22.03;;;15.83;;
16115;SDS011;8162;47.104;15.432;2023-06-22T05:23:34;22.73;;;17.17;;
16115;SDS011;8162;47.104;15.432;2023-06-22T05:26:35;18.90;;;17.03;;
16115;SDS011;8162;47.104;15.432;2023-06-22T05:29:37;21.17;;;17.23;;
16115;SDS011;8162;47.104;15.432;2023-06-22T05:32:38;22.87;;;18.07;;
16115;SDS011;8162;47.104;15.432;2023-06-22T05:35:39;23.67;;;16.77;;
16115;SDS011;8162;47.104;15.432;2023-06-22T05:38:40;28.43;;;17.67;;
16115;SDS011;8162;47.104;15.432;2023-06-22T05:41:41;20.83;;;16.17;;
16115;SDS011;8162;47.104;15.432;2023-06-22T05:44:45;21.30;;;16.90;;
16115;SDS011;8162;47.104;15.432;2023-06-22T05:47:47;21.57;;;17.67;;
16115;SDS011;8162;47.104;15.432;2023-06-22T05:50:48;21.67;;;18.03;;
16115;SDS011;8162;47.104;15.432;2023-06-22T05:53:49;21.07;;;17.13;;
16115;SDS011;8162;47.104;15.432;2023-06-22T05:56:50;26.03;;;16.93;;
16115;SDS011;8162;47.104;15.432;2023-06-22T05:59:51;20.90;;;16.63;;
16115;SDS011;8162;47.104;15.432;2023-06-22T06:02:53;23.93;;;17.37;;
16115;SDS011;8162;47.104;15.432;2023-06-22T06:05:54;24.53;;;17.87;;
16115;SDS011;8162;47.104;15.432;2023-06-22T06:08:55;21.40;;;17.77;;
16115;SDS011;8162;47.104;15.432;2023-06-22T06:11:57;21.27;;;17.93;;
16115;SDS011;8162;47.104;15.432;2023-06-22T06:14:58;22.40;;;17.50;;
16115;SDS011;8162;47.104;15.432;2023-06-22T06:17:59;18.90;;;16.90;;
16115;SDS011;8162;47.104;15.432;2023-06-22T06:21:00;20.13;;;17.23;;
16115;SDS011;8162;47.104;15.432;2023-06-22T06:24:01;19.17;;;17.17;;
16115;SDS011;8162;47.104;15.432;2023-06-22T06:27:02;24.50;;;17.73;;
16115;SDS011;8162;47.104;15.432;2023-06-22T06:30:04;20.63;;;17.80;;
16115;SDS011;8162;47.104;15.432;2023-06-22T06:33:06;19.30;;;17.23;;
16115;SDS011;8162;47.104;15.432;2023-06-22T06:36:08;21.10;;;18.93;;
16115;SDS011;8162;47.104;15.432;2023-06-22T06:39:09;20.37;;;17.77;;
16115;SDS011;8162;47.104;15.432;2023-06-22T06:42:10;19.63;;;17.47;;
16115;SDS011;8162;47.104;15.432;2023-06-22T06:45:12;21.00;;;18.80;;
16115;SDS011;8162;47.104;15.432;2023-06-22T06:48:13;19.00;;;17.00;;
16115;SDS011;8162;47.104;15.432;2023-06-22T06:51:14;19.50;;;17.50;;
16115;SDS011;8162;47.104;15.432;2023-06-22T06:54:15;20.67;;;17.70;;
16115;SDS011;8162;47.104;15.432;2023-06-22T06:57:16;23.87;;;17.83;;
16115;SDS011;8162;47.104;15.432;2023-06-22T07:00:17;19.70;;;17.63;;
16115;SDS011;8162;47.104;15.432;2023-06-22T07:03:18;20.17;;;18.13;;
16115;SDS011;8162;47.104;15.432;2023-06-22T07:06:19;22.43;;;18.47;;
16115;SDS011;8162;47.104;15.432;2023-06-22T07:09:20;22.47;;;18.20;;
16115;SDS011;8162;47.104;15.432;2023-06-22T07:12:21;19.67;;;17.33;;
16115;SDS011;8162;47.104;15.432;2023-06-22T07:15:22;18.43;;;16.57;;
16115;SDS011;8162;47.104;15.432;2023-06-22T07:18:24;20.23;;;17.93;;
16115;SDS011;8162;47.104;15.432;2023-06-22T07:21:26;19.07;;;17.03;;
16115;SDS011;8162;47.104;15.432;2023-06-22T07:24:27;18.77;;;16.87;;
16115;SDS011;8162;47.104;15.432;2023-06-22T07:27:28;19.83;;;15.83;;
16115;SDS011;8162;47.104;15.432;2023-06-22T07:30:35;18.53;;;16.83;;
16115;SDS011;8162;47.104;15.432;2023-06-22T07:33:36;17.97;;;15.87;;
16115;SDS011;8162;47.104;15.432;2023-06-22T07:36:37;21.43;;;16.40;;
16115;SDS011;8162;47.104;15.432;2023-06-22T07:39:38;18.37;;;15.47;;
16115;SDS011;8162;47.104;15.432;2023-06-22T07:42:39;18.83;;;13.13;;
16115;SDS011;8162;47.104;15.432;2023-06-22T07:45:40;19.83;;;14.87;;
16115;SDS011;8162;47.104;15.432;2023-06-22T07:48:42;18.23;;;13.43;;
16115;SDS011;8162;47.104;15.432;2023-06-22T07:51:43;17.60;;;14.53;;
16115;SDS011;8162;47.104;15.432;2023-06-22T07:54:44;15.37;;;12.83;;
16115;SDS011;8162;47.104;15.432;2023-06-22T07:57:46;16.73;;;13.40;;
16115;SDS011;8162;47.104;15.432;2023-06-22T08:00:48;17.20;;;13.67;;
16115;SDS011;8162;47.104;15.432;2023-06-22T08:03:49;17.43;;;14.37;;
16115;SDS011;8162;47.104;15.432;2023-06-22T08:06:50;15.37;;;12.87;;
16115;SDS011;8162;47.104;15.432;2023-06-22T08:09:51;15.03;;;12.97;;
16115;SDS011;8162;47.104;15.432;2023-06-22T08:12:52;20.27;;;13.33;;
16115;SDS011;8162;47.104;15.432;2023-06-22T08:15:53;16.87;;;13.83;;
16115;SDS011;8162;47.104;15.432;2023-06-22T08:18:54;16.13;;;13.47;;
16115;SDS011;8162;47.104;15.432;2023-06-22T08:21:56;15.33;;;13.70;;
16115;SDS011;8162;47.104;15.432;2023-06-22T08:24:57;16.13;;;14.07;;
16115;SDS011;8162;47.104;15.432;2023-06-22T08:27:58;16.80;;;13.90;;
16115;SDS011;8162;47.104;15.432;2023-06-22T08:30:59;15.77;;;14.03;;
16115;SDS011;8162;47.104;15.432;2023-06-22T08:34:01;15.43;;;13.83;;
16115;SDS011;8162;47.104;15.432;2023-06-22T08:37:02;14.93;;;12.60;;
16115;SDS011;8162;47.104;15.432;2023-06-22T08:40:07;17.50;;;13.93;;
16115;SDS011;8162;47.104;15.432;2023-06-22T08:43:09;15.77;;;12.97;;
16115;SDS011;8162;47.104;15.432;2023-06-22T08:46:13;15.97;;;13.70;;
16115;SDS011;8162;47.104;15.432;2023-06-22T08:49:14;18.30;;;13.23;;
16115;SDS011;8162;47.104;15.432;2023-06-22T08:52:17;16.57;;;14.83;;
16115;SDS011;8162;47.104;15.432;2023-06-22T08:55:18;16.67;;;13.97;;
16115;SDS011;8162;47.104;15.432;2023-06-22T08:58:19;14.23;;;12.03;;
16115;SDS011;8162;47.104;15.432;2023-06-22T09:01:21;16.07;;;13.00;;
16115;SDS011;8162;47.104;15.432;2023-06-22T09:04:22;14.50;;;12.97;;
16115;SDS011;8162;47.104;15.432;2023-06-22T09:07:23;14.53;;;13.07;;
16115;SDS011;8162;47.104;15.432;2023-06-22T09:10:26;15.93;;;13.30;;
16115;SDS011;8162;47.104;15.432;2023-06-22T09:13:30;14.27;;;12.63;;
16115;SDS011;8162;47.104;15.432;2023-06-22T09:16:32;15.67;;;12.93;;
16115;SDS011;8162;47.104;15.432;2023-06-22T09:19:33;14.07;;;12.67;;
16115;SDS011;8162;47.104;15.432;2023-06-22T09:22:34;15.63;;;12.83;;
16115;SDS011;8162;47.104;15.432;2023-06-22T09:25:35;16.47;;;13.43;;
16115;SDS011;8162;47.104;15.432;2023-06-22T09:28:36;13.80;;;12.37;;
16115;SDS011;8162;47.104;15.432;2023-06-22T09:31:37;14.90;;;13.37;;
16115;SDS011;8162;47.104;15.432;2023-06-22T09:34:38;14.57;;;13.07;;
16115;SDS011;8162;47.104;15.432;2023-06-22T09:37:39;15.40;;;12.70;;
16115;SDS011;8162;47.104;15.432;2023-06-22T09:40:41;14.70;;;12.93;;
16115;SDS011;8162;47.104;15.432;2023-06-22T09:43:42;15.67;;;13.67;;
16115;SDS011;8162;47.104;15.432;2023-06-22T09:46:43;13.73;;;12.37;;
16115;SDS011;8162;47.104;15.432;2023-06-22T09:49:44;13.33;;;11.73;;
16115;SDS011;8162;47.104;15.432;2023-06-22T09:52:45;14.27;;;12.77;;
16115;SDS011;8162;47.104;15.432;2023-06-22T09:55:50;14.47;;;12.97;;
16115;SDS011;8162;47.104;15.432;2023-06-22T09:58:51;15.30;;;12.73;;
16115;SDS011;8162;47.104;15.432;2023-06-22T10:01:52;15.43;;;12.27;;
16115;SDS011;8162;47.104;15.432;2023-06-22T10:04:53;16.47;;;13.27;;
16115;SDS011;8162;47.104;15.432;2023-06-22T10:07:54;14.73;;;13.37;;
16115;SDS011;8162;47.104;15.432;2023-06-22T10:10:55;22.30;;;12.73;;
16115;SDS011;8162;47.104;15.432;2023-06-22T10:13:56;17.17;;;12.07;;
16115;SDS011;8162;47.104;15.432;2023-06-22T10:16:58;13.07;;;11.77;;
16115;SDS011;8162;47.104;15.432;2023-06-22T10:20:00;14.20;;;11.93;;
16115;SDS011;8162;47.104;15.432;2023-06-22T10:23:06;13.13;;;11.73;;
16115;SDS011;8162;47.104;15.432;2023-06-22T10:26:07;16.23;;;12.47;;
16115;SDS011;8162;47.104;15.432;2023-06-22T10:29:08;13.30;;;11.90;;
16115;SDS011;8162;47.104;15.432;2023-06-22T10:32:09;14.27;;;11.37;;
16115;SDS011;8162;47.104;15.432;2023-06-22T10:35:10;14.67;;;12.20;;
16115;SDS011;8162;47.104;15.432;2023-06-22T10:38:13;13.00;;;11.80;;
16115;SDS011;8162;47.104;15.432;2023-06-22T10:41:14;14.53;;;11.80;;
16115;SDS011;8162;47.104;15.432;2023-06-22T10:44:16;15.97;;;11.83;;
16115;SDS011;8162;47.104;15.432;2023-06-22T10:47:17;16.30;;;11.07;;
16115;SDS011;8162;47.104;15.432;2023-06-22T10:50:18;14.87;;;11.93;;
16115;SDS011;8162;47.104;15.432;2023-06-22T10:53:20;16.07;;;12.23;;
16115;SDS011;8162;47.104;15.432;2023-06-22T10:56:21;17.40;;;12.07;;
16115;SDS011;8162;47.104;15.432;2023-06-22T10:59:22;13.77;;;12.30;;
16115;SDS011;8162;47.104;15.432;2023-06-22T11:02:24;13.30;;;11.77;;
16115;SDS011;8162;47.104;15.432;2023-06-22T11:05:25;13.93;;;11.37;;
16115;SDS011;8162;47.104;15.432;2023-06-22T11:08:26;11.97;;;10.30;;
16115;SDS011;8162;47.104;15.432;2023-06-22T11:11:28;14.77;;;10.87;;
16115;SDS011;8162;47.104;15.432;2023-06-22T11:14:29;12.93;;;11.50;;
16115;SDS011;8162;47.104;15.432;2023-06-22T11:17:30;14.47;;;11.67;;
16115;SDS011;8162;47.104;15.432;2023-06-22T11:20:31;13.93;;;11.90;;
16115;SDS011;8162;47.104;15.432;2023-06-22T11:23:34;12.50;;;11.10;;
16115;SDS011;8162;47.104;15.432;2023-06-22T11:26:35;16.20;;;12.20;;
16115;SDS011;8162;47.104;15.432;2023-06-22T11:29:37;14.30;;;11.50;;
16115;SDS011;8162;47.104;15.432;2023-06-22T11:32:39;16.37;;;12.80;;
16115;SDS011;8162;47.104;15.432;2023-06-22T11:35:40;16.63;;;12.10;;
16115;SDS011;8162;47.104;15.432;2023-06-22T11:38:41;14.70;;;11.80;;
16115;SDS011;8162;47.104;15.432;2023-06-22T11:41:42;15.37;;;11.90;;
16115;SDS011;8162;47.104;15.432;2023-06-22T11:44:44;15.87;;;12.37;;
16115;SDS011;8162;47.104;15.432;2023-06-22T11:47:45;15.30;;;12.07;;
16115;SDS011;8162;47.104;15.432;2023-06-22T11:50:46;14.47;;;12.43;;
16115;SDS011;8162;47.104;15.432;2023-06-22T11:53:47;15.20;;;12.13;;
16115;SDS011;8162;47.104;15.432;2023-06-22T11:56:48;13.67;;;12.13;;
16115;SDS011;8162;47.104;15.432;2023-06-22T11:59:49;13.67;;;12.13;;
16115;SDS011;8162;47.104;15.432;2023-06-22T12:02:50;14.37;;;11.77;;
16115;SDS011;8162;47.104;15.432;2023-06-22T12:05:51;13.97;;;11.93;;
16115;SDS011;8162;47.104;15.432;2023-06-22T12:08:52;13.13;;;11.83;;
16115;SDS011;8162;47.104;15.432;2023-06-22T12:11:53;13.20;;;11.13;;
16115;SDS011;8162;47.104;15.432;2023-06-22T12:14:54;12.53;;;11.23;;
16115;SDS011;8162;47.104;15.432;2023-06-22T12:17:55;11.90;;;10.70;;
16115;SDS011;8162;47.104;15.432;2023-06-22T12:20:56;14.80;;;11.73;;
16115;SDS011;8162;47.104;15.432;2023-06-22T12:23:57;15.93;;;11.17;;
16115;SDS011;8162;47.104;15.432;2023-06-22T12:26:58;12.83;;;11.60;;
16115;SDS011;8162;47.104;15.432;2023-06-22T12:29:59;13.63;;;12.20;;
16115;SDS011;8162;47.104;15.432;2023-06-22T12:33:00;13.33;;;11.83;;
16115;SDS011;8162;47.104;15.432;2023-06-22T12:36:01;11.60;;;10.30;;
16115;SDS011;8162;47.104;15.432;2023-06-22T12:39:04;13.03;;;11.70;;
16115;SDS011;8162;47.104;15.432;2023-06-22T12:42:05;12.33;;;11.13;;
16115;SDS011;8162;47.104;15.432;2023-06-22T12:45:08;13.87;;;11.87;;
16115;SDS011;8162;47.104;15.432;2023-06-22T12:48:10;15.00;;;11.70;;
16115;SDS011;8162;47.104;15.432;2023-06-22T12:51:11;13.37;;;11.27;;
16115;SDS011;8162;47.104;15.432;2023-06-22T12:54:12;15.10;;;11.77;;
16115;SDS011;8162;47.104;15.432;2023-06-22T12:57:13;15.37;;;12.20;;
16115;SDS011;8162;47.104;15.432;2023-06-22T13:00:14;14.93;;;11.47;;
16115;SDS011;8162;47.104;15.432;2023-06-22T13:03:15;15.20;;;11.83;;
16115;SDS011;8162;47.104;15.432;2023-06-22T13:06:16;17.13;;;11.60;;
16115;SDS011;8162;47.104;15.432;2023-06-22T13:09:18;17.73;;;11.83;;
16115;SDS011;8162;47.104;15.432;2023-06-22T13:12:19;18.17;;;12.27;;
16115;SDS011;8162;47.104;15.432;2023-06-22T13:15:21;18.63;;;12.30;;
16115;SDS011;8162;47.104;15.432;2023-06-22T13:18:22;15.93;;;11.70;;
16115;SDS011;8162;47.104;15.432;2023-06-22T13:21:23;16.53;;;11.90;;
16115;SDS011;8162;47.104;15.432;2023-06-22T13:24:24;12.67;;;11.23;;
16115;SDS011;8162;47.104;15.432;2023-06-22T13:27:25;14.53;;;12.30;;
16115;SDS011;8162;47.104;15.432;2023-06-22T13:30:26;14.80;;;11.70;;
16115;SDS011;8162;47.104;15.432;2023-06-22T13:33:27;14.47;;;11.47;;
16115;SDS011;8162;47.104;15.432;2023-06-22T13:36:28;16.27;;;12.03;;
16115;SDS011;8162;47.104;15.432;2023-06-22T13:39:30;14.53;;;12.00;;
16115;SDS011;8162;47.104;15.432;2023-06-22T13:42:31;12.67;;;11.30;;
16115;SDS011;8162;47.104;15.432;2023-06-22T13:45:32;13.90;;;11.80;;
16115;SDS011;8162;47.104;15.432;2023-06-22T13:48:33;16.40;;;11.87;;
16115;SDS011;8162;47.104;15.432;2023-06-22T13:51:35;13.37;;;11.33;;
16115;SDS011;8162;47.104;15.432;2023-06-22T13:54:36;15.47;;;11.83;;
16115;SDS011;8162;47.104;15.432;2023-06-22T13:57:37;18.07;;;12.10;;
16115;SDS011;8162;47.104;15.432;2023-06-22T14:00:38;14.00;;;11.90;;
16115;SDS011;8162;47.104;15.432;2023-06-22T14:03:39;14.30;;;10.83;;
16115;SDS011;8162;47.104;15.432;2023-06-22T14:06:40;12.87;;;11.60;;
16115;SDS011;8162;47.104;15.432;2023-06-22T14:09:41;13.77;;;11.43;;
16115;SDS011;8162;47.104;15.432;2023-06-22T14:12:42;16.37;;;11.50;;
16115;SDS011;8162;47.104;15.432;2023-06-22T14:15:44;15.60;;;12.37;;
16115;SDS011;8162;47.104;15.432;2023-06-22T14:18:48;13.13;;;11.33;;
16115;SDS011;8162;47.104;15.432;2023-06-22T14:21:49;13.20;;;11.73;;
16115;SDS011;8162;47.104;15.432;2023-06-22T14:24:50;18.23;;;12.97;;
16115;SDS011;8162;47.104;15.432;2023-06-22T14:27:51;14.07;;;12.33;;
16115;SDS011;8162;47.104;15.432;2023-06-22T14:30:52;15.27;;;11.70;;
16115;SDS011;8162;47.104;15.432;2023-06-22T14:33:53;16.73;;;12.50;;
16115;SDS011;8162;47.104;15.432;2023-06-22T14:36:54;13.87;;;12.37;;
16115;SDS011;8162;47.104;15.432;2023-06-22T14:39:55;12.47;;;11.27;;
16115;SDS011;8162;47.104;15.432;2023-06-22T14:42:56;14.80;;;12.50;;
16115;SDS011;8162;47.104;15.432;2023-06-22T14:45:57;14.90;;;12.23;;
16115;SDS011;8162;47.104;15.432;2023-06-22T14:48:58;15.27;;;12.20;;
16115;SDS011;8162;47.104;15.432;2023-06-22T14:51:59;16.37;;;12.23;;
16115;SDS011;8162;47.104;15.432;2023-06-22T14:55:00;13.50;;;12.07;;
16115;SDS011;8162;47.104;15.432;2023-06-22T14:58:01;16.13;;;12.73;;
16115;SDS011;8162;47.104;15.432;2023-06-22T15:01:02;17.10;;;12.27;;
16115;SDS011;8162;47.104;15.432;2023-06-22T15:04:03;13.00;;;11.83;;
16115;SDS011;8162;47.104;15.432;2023-06-22T15:07:04;17.87;;;13.27;;
16115;SDS011;8162;47.104;15.432;2023-06-22T15:10:06;14.27;;;12.77;;
16115;SDS011;8162;47.104;15.432;2023-06-22T15:13:07;15.43;;;12.93;;
16115;SDS011;8162;47.104;15.432;2023-06-22T15:16:08;13.17;;;11.77;;
16115;SDS011;8162;47.104;15.432;2023-06-22T15:19:09;13.83;;;12.33;;
16115;SDS011;8162;47.104;15.432;2023-06-22T15:22:12;13.80;;;12.37;;
16115;SDS011;8162;47.104;15.432;2023-06-22T15:25:13;13.87;;;11.97;;
16115;SDS011;8162;47.104;15.432;2023-06-22T15:28:14;16.20;;;12.43;;
16115;SDS011;8162;47.104;15.432;2023-06-22T15:31:15;15.47;;;12.87;;
16115;SDS011;8162;47.104;15.432;2023-06-22T15:34:16;19.00;;;12.53;;
16115;SDS011;8162;47.104;15.432;2023-06-22T15:37:17;14.33;;;12.47;;
16115;SDS011;8162;47.104;15.432;2023-06-22T15:40:18;14.17;;;11.87;;
16115;SDS011;8162;47.104;15.432;2023-06-22T15:43:19;16.70;;;12.83;;
16115;SDS011;8162;47.104;15.432;2023-06-22T15:46:20;19.20;;;12.53;;
16115;SDS011;8162;47.104;15.432;2023-06-22T15:49:21;14.40;;;13.00;;
16115;SDS011;8162;47.104;15.432;2023-06-22T15:52:23;17.87;;;13.83;;
16115;SDS011;8162;47.104;15.432;2023-06-22T15:55:24;21.03;;;11.67;;
16115;SDS011;8162;47.104;15.432;2023-06-22T15:58:26;16.83;;;12.30;;
16115;SDS011;8162;47.104;15.432;2023-06-22T16:01:27;18.80;;;12.53;;
16115;SDS011;8162;47.104;15.432;2023-06-22T16:04:28;14.50;;;13.00;;
16115;SDS011;8162;47.104;15.432;2023-06-22T16:07:29;14.20;;;12.90;;
16115;SDS011;8162;47.104;15.432;2023-06-22T16:10:30;15.60;;;13.93;;
16115;SDS011;8162;47.104;15.432;2023-06-22T16:13:31;15.00;;;13.43;;
16115;SDS011;8162;47.104;15.432;2023-06-22T16:16:32;15.50;;;13.43;;
16115;SDS011;8162;47.104;15.432;2023-06-22T16:19:33;18.37;;;13.87;;
16115;SDS011;8162;47.104;15.432;2023-06-22T16:22:34;14.50;;;12.47;;
16115;SDS011;8162;47.104;15.432;2023-06-22T16:25:35;17.50;;;12.53;;
16115;SDS011;8162;47.104;15.432;2023-06-22T16:28:36;14.20;;;12.77;;
16115;SDS011;8162;47.104;15.432;2023-06-22T16:31:37;15.43;;;13.83;;
16115;SDS011;8162;47.104;15.432;2023-06-22T16:34:38;16.67;;;14.13;;
16115;SDS011;8162;47.104;15.432;2023-06-22T16:37:39;15.93;;;13.67;;
16115;SDS011;8162;47.104;15.432;2023-06-22T16:40:40;14.93;;;13.43;;
16115;SDS011;8162;47.104;15.432;2023-06-22T16:43:41;14.97;;;12.87;;
16115;SDS011;8162;47.104;15.432;2023-06-22T16:46:43;16.07;;;14.57;;
16115;SDS011;8162;47.104;15.432;2023-06-22T16:49:44;15.87;;;14.13;;
16115;SDS011;8162;47.104;15.432;2023-06-22T16:52:45;17.80;;;15.07;;
16115;SDS011;8162;47.104;15.432;2023-06-22T16:55:50;15.93;;;14.23;;
16115;SDS011;8162;47.104;15.432;2023-06-22T16:58:53;16.73;;;14.77;;
16115;SDS011;8162;47.104;15.432;2023-06-22T17:01:54;16.70;;;15.13;;
16115;SDS011;8162;47.104;15.432;2023-06-22T17:04:58;16.33;;;14.63;;
16115;SDS011;8162;47.104;15.432;2023-06-22T17:08:00;16.67;;;14.93;;
16115;SDS011;8162;47.104;15.432;2023-06-22T17:11:02;16.50;;;14.73;;
16115;SDS011;8162;47.104;15.432;2023-06-22T17:14:03;15.80;;;14.20;;
16115;SDS011;8162;47.104;15.432;2023-06-22T17:17:05;19.50;;;14.57;;
16115;SDS011;8162;47.104;15.432;2023-06-22T17:20:07;17.03;;;15.27;;
16115;SDS011;8162;47.104;15.432;2023-06-22T17:23:09;11.73;;;10.50;;
16115;SDS011;8162;47.104;15.432;2023-06-22T17:26:10;13.80;;;12.40;;
16115;SDS011;8162;47.104;15.432;2023-06-22T17:29:12;16.30;;;13.63;;
16115;SDS011;8162;47.104;15.432;2023-06-22T17:32:13;17.53;;;15.53;;
16115;SDS011;8162;47.104;15.432;2023-06-22T17:35:14;17.67;;;15.90;;
16115;SDS011;8162;47.104;15.432;2023-06-22T17:38:21;17.73;;;15.87;;
16115;SDS011;8162;47.104;15.432;2023-06-22T17:41:28;17.80;;;15.90;;
16115;SDS011;8162;47.104;15.432;2023-06-22T17:44:32;17.00;;;15.27;;
16115;SDS011;8162;47.104;15.432;2023-06-22T17:47:34;18.67;;;15.83;;